createdAt,value
2022-11-02T00:01:15.774Z,11.00
2022-11-02T00:03:43.452Z,11.00
2022-11-02T00:06:11.133Z,10.90
2022-11-02T00:08:38.839Z,10.90
2022-11-02T00:11:06.574Z,10.90
2022-11-02T00:13:35.616Z,10.90
2022-11-02T00:16:03.836Z,10.80
2022-11-02T00:18:31.656Z,10.80
2022-11-02T00:20:59.460Z,10.80
2022-11-02T00:23:27.265Z,10.70
2022-11-02T00:25:56.197Z,10.70
2022-11-02T00:28:24.267Z,10.70
2022-11-02T00:30:53.293Z,10.70
2022-11-02T00:33:20.974Z,10.70
2022-11-02T00:35:48.829Z,10.70
2022-11-02T00:38:16.579Z,10.60
2022-11-02T00:40:44.465Z,10.70
2022-11-02T00:43:12.231Z,10.70
2022-11-02T00:45:39.945Z,10.70
2022-11-02T00:48:08.992Z,10.80
2022-11-02T00:50:36.664Z,10.70
2022-11-02T00:53:06.518Z,10.80
2022-11-02T00:55:34.199Z,10.70
2022-11-02T00:58:02.220Z,10.70
2022-11-02T01:00:30.188Z,10.70
2022-11-02T01:03:00.262Z,10.70
2022-11-02T01:05:29.420Z,10.80
2022-11-02T01:07:57.288Z,10.80
2022-11-02T01:10:25.899Z,10.80
2022-11-02T01:12:53.723Z,10.70
2022-11-02T01:15:21.456Z,10.70
2022-11-02T01:17:49.170Z,10.70
2022-11-02T01:20:16.915Z,10.60
2022-11-02T01:22:45.933Z,10.60
2022-11-02T01:25:13.610Z,10.70
2022-11-02T01:27:41.306Z,10.70
2022-11-02T01:30:09.431Z,10.80
2022-11-02T01:32:37.151Z,10.70
2022-11-02T01:35:05.075Z,10.70
2022-11-02T01:37:32.861Z,10.70
2022-11-02T01:40:01.921Z,10.70
2022-11-02T01:42:29.760Z,10.60
2022-11-02T01:44:57.437Z,10.60
2022-11-02T01:47:26.848Z,10.60
2022-11-02T01:49:56.786Z,10.60
2022-11-02T01:52:26.803Z,10.60
2022-11-02T01:54:56.932Z,10.70
2022-11-02T01:57:26.763Z,10.70
2022-11-02T01:59:57.674Z,10.60
2022-11-02T02:02:26.194Z,10.50
2022-11-02T02:04:55.646Z,10.40
2022-11-02T02:07:25.141Z,10.40
2022-11-02T02:09:53.697Z,10.40
2022-11-02T02:12:22.043Z,10.50
2022-11-02T02:14:51.412Z,10.70
2022-11-02T02:17:27.597Z,10.70
2022-11-02T02:19:58.828Z,10.70
2022-11-02T02:22:45.660Z,10.70
2022-11-02T02:25:24.114Z,10.60
2022-11-02T02:28:05.333Z,10.70
2022-11-02T02:30:38.082Z,10.90
2022-11-02T02:33:06.895Z,10.90
2022-11-02T02:35:39.308Z,10.80
2022-11-02T02:38:09.466Z,10.70
2022-11-02T02:40:38.296Z,10.70
2022-11-02T02:43:09.389Z,10.70
2022-11-02T02:45:38.752Z,10.90
2022-11-02T02:48:08.504Z,10.90
2022-11-02T02:50:38.341Z,11.10
2022-11-02T02:53:07.860Z,11.20
2022-11-02T02:55:38.603Z,11.10
2022-11-02T02:58:08.934Z,11.10
2022-11-02T03:00:37.319Z,11.20
2022-11-02T03:03:05.672Z,11.20
2022-11-02T03:05:35.045Z,11.10
2022-11-02T03:08:05.494Z,10.90
2022-11-02T03:10:35.433Z,10.80
2022-11-02T03:13:10.074Z,11.10
2022-11-02T03:15:41.504Z,11.20
2022-11-02T03:18:12.948Z,11.30
2022-11-02T03:20:45.293Z,11.40
2022-11-02T03:23:14.849Z,11.40
2022-11-02T03:25:46.528Z,11.30
2022-11-02T03:28:17.368Z,11.30
2022-11-02T03:30:48.375Z,11.20
2022-11-02T03:33:20.668Z,11.10
2022-11-02T03:35:52.240Z,11.10
2022-11-02T03:38:22.548Z,11.10
2022-11-02T03:40:51.645Z,11.00
2022-11-02T03:43:20.317Z,11.10
2022-11-02T03:45:51.148Z,11.40
2022-11-02T03:48:18.934Z,11.40
2022-11-02T03:50:47.926Z,11.30
2022-11-02T03:53:17.741Z,11.20
2022-11-02T03:55:48.266Z,11.20
2022-11-02T03:58:15.933Z,11.20
2022-11-02T04:00:47.968Z,11.00
2022-11-02T04:03:17.419Z,10.80
2022-11-02T04:05:45.079Z,10.80
2022-11-02T04:08:24.423Z,10.90
2022-11-02T04:11:10.568Z,11.00
2022-11-02T04:13:56.339Z,11.00
2022-11-02T04:16:27.793Z,11.10
2022-11-02T04:19:14.767Z,11.00
2022-11-02T04:22:02.579Z,11.10
2022-11-02T04:24:44.208Z,11.10
2022-11-02T04:27:14.422Z,11.10
2022-11-02T04:29:44.388Z,11.10
2022-11-02T04:32:12.068Z,11.10
2022-11-02T04:34:40.180Z,11.10
2022-11-02T04:37:28.093Z,11.10
2022-11-02T04:39:54.838Z,11.00
2022-11-02T04:42:22.524Z,11.00
2022-11-02T04:44:50.231Z,11.00
2022-11-02T04:47:17.904Z,10.90
2022-11-02T04:49:46.934Z,10.90
2022-11-02T04:52:14.626Z,10.90
2022-11-02T04:54:42.303Z,10.80
2022-11-02T04:57:09.988Z,10.80
2022-11-02T04:59:37.685Z,10.80
2022-11-02T05:02:05.465Z,10.80
2022-11-02T05:04:33.281Z,10.70
2022-11-02T05:07:06.272Z,10.70
2022-11-02T05:09:34.007Z,10.70
2022-11-02T05:12:04.942Z,10.70
2022-11-02T05:14:32.770Z,10.70
2022-11-02T05:17:00.457Z,10.70
2022-11-02T05:19:28.133Z,10.60
2022-11-02T05:21:55.831Z,10.60
2022-11-02T05:24:24.853Z,10.60
2022-11-02T05:26:54.017Z,10.60
2022-11-02T05:29:21.895Z,10.50
2022-11-02T05:31:49.541Z,10.50
2022-11-02T05:34:17.191Z,10.40
2022-11-02T05:36:47.678Z,10.40
2022-11-02T05:39:15.336Z,10.40
2022-11-02T05:41:44.356Z,10.50
2022-11-02T05:44:12.062Z,10.40
2022-11-02T05:46:39.761Z,10.40
2022-11-02T05:49:07.420Z,10.30
2022-11-02T05:51:35.133Z,10.20
2022-11-02T05:54:02.829Z,10.20
2022-11-02T05:56:30.522Z,10.10
2022-11-02T05:58:59.538Z,10.10
2022-11-02T06:01:27.285Z,10.00
2022-11-02T06:03:55.000Z,9.90
2022-11-02T06:06:22.803Z,9.90
2022-11-02T06:08:50.476Z,9.90
2022-11-02T06:11:18.315Z,9.90
2022-11-02T06:13:46.040Z,9.90
2022-11-02T06:16:20.017Z,9.80
2022-11-02T06:18:50.369Z,9.70
2022-11-02T06:21:18.043Z,9.70
2022-11-02T06:23:47.677Z,9.70
2022-11-02T06:26:15.821Z,9.60
2022-11-02T06:28:43.509Z,9.60
2022-11-02T06:31:11.218Z,9.60
2022-11-02T06:33:40.272Z,9.50
2022-11-02T06:36:08.466Z,9.50
2022-11-02T06:38:36.125Z,9.40
2022-11-02T06:41:06.575Z,9.50
2022-11-02T06:43:36.676Z,9.50
2022-11-02T06:46:04.480Z,9.50
2022-11-02T06:48:35.276Z,9.60
2022-11-02T06:51:05.000Z,9.70
2022-11-02T06:53:32.978Z,9.70
2022-11-02T06:56:01.165Z,9.80
2022-11-02T06:58:28.850Z,9.90
2022-11-02T07:01:00.742Z,10.00
2022-11-02T07:03:28.592Z,9.90
2022-11-02T07:05:56.607Z,10.10
2022-11-02T07:08:25.838Z,10.10
2022-11-02T07:10:53.577Z,10.10
2022-11-02T07:13:21.476Z,10.00
2022-11-02T07:15:51.821Z,9.90
2022-11-02T07:18:19.535Z,9.80
2022-11-02T07:20:47.204Z,9.90
2022-11-02T07:23:14.988Z,9.90
2022-11-02T07:25:44.013Z,10.00
2022-11-02T07:28:11.677Z,10.10
2022-11-02T07:30:39.525Z,10.20
2022-11-02T07:33:07.545Z,10.40
2022-11-02T07:35:36.055Z,10.60
2022-11-02T07:38:04.426Z,10.80
2022-11-02T07:40:32.881Z,10.90
2022-11-02T07:43:03.038Z,11.10
2022-11-02T07:45:31.232Z,11.20
2022-11-02T07:47:58.913Z,11.40
2022-11-02T07:50:28.429Z,11.50
2022-11-02T07:52:56.946Z,11.60
2022-11-02T07:55:25.862Z,11.80
2022-11-02T07:57:54.199Z,12.00
2022-11-02T08:00:23.457Z,12.10
2022-11-02T08:02:55.023Z,12.30
2022-11-02T08:05:22.944Z,12.50
2022-11-02T08:07:57.110Z,12.50
2022-11-02T08:10:25.177Z,12.50
2022-11-02T08:12:52.932Z,12.70
2022-11-02T08:15:20.647Z,12.70
2022-11-02T08:17:49.684Z,12.80
2022-11-02T08:20:17.465Z,12.80
2022-11-02T08:22:45.182Z,13.00
2022-11-02T08:25:12.958Z,13.20
2022-11-02T08:27:40.693Z,13.40
2022-11-02T08:30:08.966Z,13.60
2022-11-02T08:32:36.889Z,13.90
2022-11-02T08:35:06.429Z,14.30
2022-11-02T08:37:34.132Z,14.70
2022-11-02T08:40:01.836Z,14.70
2022-11-02T08:42:29.546Z,14.90
2022-11-02T08:44:57.224Z,15.00
2022-11-02T08:47:24.900Z,15.10
2022-11-02T08:49:52.662Z,15.50
2022-11-02T08:52:21.704Z,15.70
2022-11-02T08:54:49.380Z,15.80
2022-11-02T08:57:17.068Z,16.00
2022-11-02T08:59:44.735Z,16.00
2022-11-02T09:02:12.544Z,16.00
2022-11-02T09:04:40.464Z,16.00
2022-11-02T09:07:08.297Z,16.20
2022-11-02T09:09:37.335Z,16.30
2022-11-02T09:12:05.401Z,16.40
2022-11-02T09:14:33.113Z,16.80
2022-11-02T09:17:00.823Z,17.00
2022-11-02T09:19:28.526Z,17.10
2022-11-02T09:21:56.258Z,17.00
2022-11-02T09:24:23.938Z,17.10
2022-11-02T09:26:54.492Z,17.30
2022-11-02T09:31:54.874Z,17.40
2022-11-02T09:34:22.554Z,17.40
2022-11-02T09:36:50.245Z,17.30
2022-11-02T09:39:18.780Z,17.60
2022-11-02T09:41:48.846Z,17.40
2022-11-02T09:44:22.083Z,17.40
2022-11-02T09:47:17.731Z,17.60
2022-11-02T09:49:37.744Z,17.50
2022-11-02T09:52:07.687Z,17.20
2022-11-02T09:54:36.706Z,17.00
2022-11-02T09:57:06.342Z,17.20
2022-11-02T09:59:35.390Z,17.10
2022-11-02T10:02:07.194Z,17.40
2022-11-02T10:05:01.822Z,17.70
2022-11-02T10:07:42.160Z,18.00
2022-11-02T10:10:12.805Z,17.80
2022-11-02T10:12:44.003Z,17.60
2022-11-02T10:15:16.641Z,17.50
2022-11-02T10:17:47.575Z,17.40
2022-11-02T10:20:19.267Z,17.40
2022-11-02T10:22:48.060Z,17.10
2022-11-02T10:25:16.873Z,16.70
2022-11-02T10:27:45.625Z,16.40
2022-11-02T10:30:16.957Z,16.30
2022-11-02T10:32:46.044Z,16.10
2022-11-02T10:35:33.949Z,15.70
2022-11-02T10:38:15.215Z,15.50
2022-11-02T10:40:49.674Z,15.40
2022-11-02T10:43:25.904Z,15.40
2022-11-02T10:46:05.170Z,15.20
2022-11-02T10:48:38.465Z,15.10
2022-11-02T10:51:09.512Z,15.10
2022-11-02T10:53:41.608Z,15.30
2022-11-02T10:56:17.548Z,15.50
2022-11-02T10:58:50.266Z,16.20
2022-11-02T11:01:19.349Z,16.70
2022-11-02T11:03:57.640Z,17.60
2022-11-02T11:06:26.198Z,18.40
2022-11-02T11:08:59.445Z,19.00
2022-11-02T11:11:29.197Z,18.90
2022-11-02T11:16:50.156Z,19.20
2022-11-02T11:19:39.711Z,19.50
2022-11-02T11:22:24.065Z,19.50
2022-11-02T11:24:51.734Z,19.90
2022-11-02T11:27:19.783Z,19.90
2022-11-02T11:29:49.050Z,20.10
2022-11-02T11:32:19.108Z,20.10
2022-11-02T11:34:51.119Z,20.80
2022-11-02T11:37:18.800Z,20.80
2022-11-02T11:39:51.026Z,20.00
2022-11-02T11:42:22.506Z,19.40
2022-11-02T11:44:53.666Z,18.70
2022-11-02T11:47:27.027Z,18.60
2022-11-02T11:50:09.517Z,19.30
2022-11-02T11:52:42.908Z,19.90
2022-11-02T11:55:21.322Z,20.50
2022-11-02T11:58:05.361Z,20.70
2022-11-02T12:00:34.384Z,20.80
2022-11-02T12:03:07.995Z,19.70
2022-11-02T12:05:39.806Z,19.10
2022-11-02T12:08:15.045Z,18.40
2022-11-02T12:10:48.984Z,18.60
2022-11-02T12:13:23.335Z,18.90
2022-11-02T12:15:58.538Z,19.50
2022-11-02T12:18:44.560Z,19.90
2022-11-02T12:21:19.290Z,19.70
2022-11-02T12:23:52.942Z,19.80
2022-11-02T12:26:25.952Z,20.50
2022-11-02T12:28:58.855Z,20.80
2022-11-02T12:31:31.482Z,21.20
2022-11-02T12:34:12.256Z,21.50
2022-11-02T12:37:11.106Z,21.70
2022-11-02T12:39:38.642Z,21.80
2022-11-02T12:42:12.797Z,21.70
2022-11-02T12:44:49.944Z,21.80
2022-11-02T12:47:23.057Z,21.60
2022-11-02T12:49:56.607Z,21.10
2022-11-02T12:52:29.151Z,21.10
2022-11-02T12:54:58.041Z,20.70
2022-11-02T12:57:28.178Z,20.70
2022-11-02T12:59:59.156Z,20.40
2022-11-02T13:02:28.139Z,20.30
2022-11-02T13:04:59.008Z,20.00
2022-11-02T13:07:30.255Z,19.60
2022-11-02T13:10:02.050Z,19.30
2022-11-02T13:12:31.529Z,19.00
2022-11-02T13:14:59.270Z,18.60
2022-11-02T13:17:31.549Z,18.20
2022-11-02T13:20:02.935Z,18.10
2022-11-02T13:22:34.435Z,17.90
2022-11-02T13:25:05.012Z,17.70
2022-11-02T13:27:36.579Z,17.40
2022-11-02T13:30:06.180Z,17.20
2022-11-02T13:32:35.213Z,17.00
2022-11-02T13:35:08.224Z,16.80
2022-11-02T13:37:36.710Z,16.70
2022-11-02T13:40:07.217Z,16.60
2022-11-02T13:42:45.926Z,16.40
2022-11-02T13:45:23.681Z,16.40
2022-11-02T13:48:11.977Z,16.40
2022-11-02T13:50:43.307Z,16.30
2022-11-02T13:53:17.612Z,16.30
2022-11-02T13:55:46.870Z,16.20
2022-11-02T13:58:21.897Z,16.10
2022-11-02T14:00:49.649Z,16.10
2022-11-02T14:03:19.322Z,16.00
2022-11-02T14:05:49.509Z,16.00
2022-11-02T14:08:20.833Z,15.90
2022-11-02T14:11:03.510Z,15.90
2022-11-02T14:13:50.313Z,15.80
2022-11-02T14:16:33.087Z,15.80
2022-11-02T14:19:18.903Z,15.70
2022-11-02T14:22:05.537Z,15.50
2022-11-02T14:24:53.854Z,15.40
2022-11-02T14:27:31.225Z,15.30
2022-11-02T14:29:59.650Z,15.30
2022-11-02T14:32:34.734Z,15.30
2022-11-02T14:35:09.038Z,15.30
2022-11-02T14:37:53.084Z,15.30
2022-11-02T14:40:25.782Z,15.40
2022-11-02T14:43:02.670Z,15.40
2022-11-02T14:45:35.805Z,15.40
2022-11-02T14:48:05.059Z,15.40
2022-11-02T14:50:33.063Z,15.30
2022-11-02T14:53:05.023Z,15.20
2022-11-02T14:55:34.106Z,15.20
2022-11-02T14:58:07.949Z,15.10
2022-11-02T15:00:39.681Z,15.00
2022-11-02T15:03:09.049Z,15.00
2022-11-02T15:05:37.807Z,14.90
2022-11-02T15:08:07.760Z,14.90
2022-11-02T15:10:37.278Z,14.80
2022-11-02T15:13:23.537Z,14.70
2022-11-02T15:16:06.116Z,14.70
2022-11-02T15:18:35.474Z,14.70
2022-11-02T15:21:21.968Z,14.60
2022-11-02T15:23:53.770Z,14.50
2022-11-02T15:26:32.213Z,14.50
2022-11-02T15:29:01.617Z,14.40
2022-11-02T15:31:29.856Z,14.30
2022-11-02T15:33:58.849Z,14.30
2022-11-02T15:36:29.622Z,14.40
2022-11-02T15:38:59.025Z,14.30
2022-11-02T15:41:29.987Z,14.30
2022-11-02T15:44:11.221Z,14.30
2022-11-02T15:46:45.094Z,14.20
2022-11-02T15:49:19.813Z,14.10
2022-11-02T15:51:51.551Z,14.00
2022-11-02T15:54:35.325Z,14.00
2022-11-02T15:57:08.883Z,14.00
2022-11-02T15:59:47.505Z,13.90
2022-11-02T16:02:22.292Z,13.90
2022-11-02T16:04:52.448Z,13.90
2022-11-02T16:07:20.462Z,13.80
2022-11-02T16:09:49.663Z,13.80
2022-11-02T16:12:18.852Z,13.70
2022-11-02T16:14:52.009Z,13.70
2022-11-02T16:17:20.532Z,13.70
2022-11-02T16:19:49.339Z,13.60
2022-11-02T16:22:27.806Z,13.60
2022-11-02T16:24:56.826Z,13.50
2022-11-02T16:27:24.576Z,13.50
2022-11-02T16:29:52.382Z,13.40
2022-11-02T16:32:20.071Z,13.30
2022-11-02T16:34:47.864Z,13.20
2022-11-02T16:37:17.176Z,13.00
2022-11-02T16:39:46.359Z,13.00
2022-11-02T16:42:18.063Z,12.90
2022-11-02T16:44:55.185Z,12.80
2022-11-02T16:47:29.373Z,12.70
2022-11-02T16:50:00.124Z,12.70
2022-11-02T16:52:30.172Z,12.70
2022-11-02T16:54:57.885Z,12.70
2022-11-02T16:57:28.192Z,12.70
2022-11-02T16:59:56.960Z,12.60
2022-11-02T17:02:30.393Z,12.60
2022-11-02T17:05:02.429Z,12.60
2022-11-02T17:07:34.654Z,12.60
2022-11-02T17:10:03.738Z,12.50
2022-11-02T17:12:34.774Z,12.50
2022-11-02T17:15:03.829Z,12.40
2022-11-02T17:17:33.173Z,12.40
2022-11-02T17:20:09.528Z,12.50
2022-11-02T17:22:38.003Z,12.50
2022-11-02T17:25:12.476Z,12.50
2022-11-02T17:27:42.560Z,12.40
2022-11-02T17:30:29.200Z,12.40
2022-11-02T17:32:56.995Z,12.40
2022-11-02T17:35:27.465Z,12.40
2022-11-02T17:37:55.512Z,12.40
2022-11-02T17:40:23.225Z,12.30
2022-11-02T17:43:00.794Z,12.30
2022-11-02T17:45:29.376Z,12.40
2022-11-02T17:47:57.460Z,12.30
2022-11-02T17:50:25.953Z,12.30
2022-11-02T17:52:54.011Z,12.20
2022-11-02T17:55:22.613Z,12.10
2022-11-02T17:57:51.645Z,12.00
2022-11-02T18:00:19.482Z,12.00
2022-11-02T18:02:50.381Z,11.90
2022-11-02T18:05:22.735Z,11.90
2022-11-02T18:07:50.551Z,11.90
2022-11-02T18:10:18.385Z,11.80
2022-11-02T18:12:46.191Z,11.90
2022-11-02T18:15:17.257Z,11.80
2022-11-02T18:17:44.934Z,11.80
2022-11-02T18:20:13.552Z,11.70
2022-11-02T18:22:41.520Z,11.60
2022-11-02T18:25:10.978Z,11.60
2022-11-02T18:27:38.806Z,11.60
2022-11-02T18:30:07.705Z,11.60
2022-11-02T18:32:37.991Z,11.60
2022-11-02T18:35:06.449Z,11.60
2022-11-02T18:37:34.111Z,11.60
2022-11-02T18:40:01.761Z,11.60
2022-11-02T18:42:29.462Z,11.50
2022-11-02T18:44:57.999Z,11.50
2022-11-02T18:47:25.750Z,11.50
2022-11-02T18:49:54.800Z,11.40
2022-11-02T18:52:22.722Z,11.40
2022-11-02T18:54:50.675Z,11.30
2022-11-02T18:57:18.392Z,11.30
2022-11-02T18:59:46.177Z,11.30
2022-11-02T19:02:14.014Z,11.30
2022-11-02T19:04:42.034Z,11.20
2022-11-02T19:07:29.126Z,11.20
2022-11-02T19:10:01.005Z,11.10
2022-11-02T19:12:31.623Z,11.10
2022-11-02T19:14:59.911Z,11.00
2022-11-02T19:17:27.724Z,11.00
2022-11-02T19:19:55.467Z,10.90
2022-11-02T19:22:25.686Z,10.70
2022-11-02T19:24:53.598Z,10.70
2022-11-02T19:27:22.283Z,10.70
2022-11-02T19:29:50.016Z,10.60
2022-11-02T19:32:18.019Z,10.70
2022-11-02T19:34:45.875Z,10.70
2022-11-02T19:37:13.773Z,10.70
2022-11-02T19:39:42.817Z,10.70
2022-11-02T19:42:10.530Z,10.60
2022-11-02T19:44:42.464Z,10.60
2022-11-02T19:47:10.689Z,10.60
2022-11-02T19:49:38.372Z,10.50
2022-11-02T19:52:06.054Z,10.50
2022-11-02T19:54:33.737Z,10.50
2022-11-02T19:57:02.757Z,10.50
2022-11-02T19:59:30.457Z,10.40
2022-11-02T20:01:58.266Z,10.50
2022-11-02T20:04:26.379Z,10.50
2022-11-02T20:06:54.112Z,10.40
2022-11-02T20:09:21.805Z,10.40
2022-11-02T20:11:49.616Z,10.40
2022-11-02T20:14:18.621Z,10.40
2022-11-02T20:16:58.418Z,10.30
2022-11-02T20:19:32.176Z,10.30
2022-11-02T20:21:59.840Z,10.20
2022-11-02T20:24:27.518Z,10.20
2022-11-02T20:27:01.248Z,10.10
2022-11-02T20:29:30.389Z,10.10
2022-11-02T20:31:58.077Z,10.10
2022-11-02T20:34:25.747Z,10.10
2022-11-02T20:36:53.419Z,10.20
2022-11-02T20:39:21.282Z,10.20
2022-11-02T20:41:52.589Z,10.20
2022-11-02T20:44:22.066Z,10.20
2022-11-02T20:46:53.232Z,10.10
2022-11-02T20:49:44.270Z,10.10
2022-11-02T20:52:10.556Z,10.20
2022-11-02T20:54:38.368Z,10.20
2022-11-02T20:57:06.305Z,10.10
2022-11-02T20:59:33.987Z,10.10
2022-11-02T21:02:03.132Z,10.00
2022-11-02T21:04:30.942Z,10.00
2022-11-02T21:06:58.640Z,10.00
2022-11-02T21:09:26.533Z,9.90
2022-11-02T21:12:11.820Z,9.90
2022-11-02T21:14:39.965Z,9.90
2022-11-02T21:17:08.982Z,9.90
2022-11-02T21:19:36.670Z,10.00
2022-11-02T21:22:04.367Z,10.00
2022-11-02T21:24:32.036Z,10.00
2022-11-02T21:26:59.788Z,10.10
2022-11-02T21:29:27.477Z,10.00
2022-11-02T21:31:55.192Z,10.10
2022-11-02T21:34:24.197Z,10.10
2022-11-02T21:36:51.953Z,10.10
2022-11-02T21:39:19.644Z,10.10
2022-11-02T21:41:48.111Z,10.10
2022-11-02T21:44:15.834Z,10.10
2022-11-02T21:46:43.505Z,10.10
2022-11-02T21:49:11.340Z,10.20
2022-11-02T21:51:40.395Z,10.20
2022-11-02T21:54:08.168Z,10.10
2022-11-02T21:56:36.846Z,9.90
2022-11-02T21:59:05.299Z,9.90
2022-11-02T22:01:46.750Z,9.90
2022-11-02T22:04:15.804Z,10.00
2022-11-02T22:06:44.922Z,10.10
2022-11-02T22:09:13.324Z,10.20
2022-11-02T22:11:41.258Z,10.30
2022-11-02T22:14:07.974Z,10.30
2022-11-02T22:16:36.385Z,10.40
2022-11-02T22:19:04.762Z,10.50
2022-11-02T22:21:33.638Z,10.40
2022-11-02T22:24:03.116Z,10.40
2022-11-02T22:26:31.844Z,10.50
2022-11-02T22:29:00.772Z,10.50
2022-11-02T22:31:29.485Z,10.50
2022-11-02T22:33:58.202Z,10.50
2022-11-02T22:36:27.433Z,10.50
2022-11-02T22:38:54.583Z,10.40
2022-11-02T22:41:25.645Z,10.40
2022-11-02T22:43:54.042Z,10.40
2022-11-02T22:46:21.901Z,10.40
2022-11-02T22:48:51.235Z,10.40
2022-11-02T22:51:19.103Z,10.30
2022-11-02T22:53:46.777Z,10.20
2022-11-02T22:56:15.132Z,10.20
2022-11-02T22:58:44.974Z,10.20
2022-11-02T23:01:13.870Z,10.20
2022-11-02T23:03:41.705Z,10.20
2022-11-02T23:06:09.896Z,10.20
2022-11-02T23:08:38.269Z,10.20
2022-11-02T23:11:24.833Z,10.10
2022-11-02T23:13:55.459Z,10.00
2022-11-02T23:16:24.601Z,10.00
2022-11-02T23:19:11.156Z,10.00
2022-11-02T23:21:39.008Z,9.80
2022-11-02T23:24:24.312Z,9.80
2022-11-02T23:26:52.118Z,9.90
2022-11-02T23:29:38.704Z,9.90
2022-11-02T23:32:24.256Z,10.00
2022-11-02T23:35:09.232Z,10.00
2022-11-02T23:37:36.937Z,10.10
2022-11-02T23:40:04.939Z,10.00
2022-11-02T23:42:32.614Z,10.00
2022-11-02T23:45:01.745Z,10.00
2022-11-02T23:47:44.087Z,10.10
2022-11-02T23:50:12.013Z,10.20
2022-11-02T23:52:57.528Z,10.30
2022-11-02T23:58:11.694Z,10.20
